Clarence Center, New York
Current Conditions -  °F | °C
As of 3:54 PM on Friday 24 Oct 2014 (Local Time) from KBUF Reporting Station
Broken Clouds Broken Clouds  
Wind Chill: 51°   Ceiling: 20000
Heat Index: 51°   Visibility: 10mi
Dew Point: 41°   Wind: 14mph
Humidity: 68%   Direction: 230°SW
Pressure: 29.96"   Gusts: 24mph
Location:  43.01°N, 78.63°W
Report Text: KBUF 241954Z 23012G21KT 10SM FEW023 FEW150 BKN200 BKN250 11/05 A2996 RMK AO2 SLP150 T01060050
Loading
Personal Weather Stations






























Interactive Weather Map
Tropical Storm Tracking
New forecast layout! Learn more

10-Day Weather Forecast

Advertisements
Track Severe Weather on mobile